Time;durP1;ratioP1;P1;durP2;ratioP2;P2;SDS_P1;SDS_P2;PMS_P1;PMS_P2;Temp;Humidity;BMP_temperature;BMP_pressure;BME280_temperature;BME280_humidity;BME280_pressure;Samples;Min_cycle;Max_cycle;Signal;HPM_P1;HPM_P2
2023/07/24 00:02:06;;;;;;;5.85;2.22;;;20.50;99.90;;;;;;5044884;28;20045;-51
2023/07/24 00:04:32;;;;;;;5.25;2.33;;;20.50;99.90;;;;;;5045050;28;20365;-52
2023/07/24 00:06:58;;;;;;;9.15;2.03;;;20.60;99.90;;;;;;5027100;28;20036;-54
2023/07/24 00:09:24;;;;;;;6.78;2.72;;;20.70;99.90;;;;;;5027768;28;20091;-53
2023/07/24 00:11:50;;;;;;;3.42;1.95;;;20.60;99.90;;;;;;5044646;28;20448;-52
2023/07/24 00:14:16;;;;;;;4.05;2.17;;;20.60;99.90;;;;;;5045137;28;20047;-53
2023/07/24 00:16:42;;;;;;;2.63;1.35;;;20.50;99.90;;;;;;5044491;28;20099;-50
2023/07/24 00:19:08;;;;;;;5.65;2.45;;;20.50;99.90;;;;;;5045225;28;20033;-52
2023/07/24 00:21:34;;;;;;;3.78;1.90;;;20.60;99.90;;;;;;5010339;28;20104;-49
2023/07/24 00:23:59;;;;;;;4.28;1.77;;;20.50;99.90;;;;;;5045132;28;20117;-53
2023/07/24 00:26:25;;;;;;;3.42;1.77;;;20.50;99.90;;;;;;5044422;28;20432;-51
2023/07/24 00:28:51;;;;;;;9.02;1.98;;;20.50;99.90;;;;;;5028125;28;20477;-54
2023/07/24 00:31:17;;;;;;;6.32;2.25;;;20.50;99.90;;;;;;5044116;28;20087;-52
2023/07/24 00:33:42;;;;;;;3.00;1.63;;;20.40;99.90;;;;;;5046096;28;20135;-51
2023/07/24 00:36:08;;;;;;;6.68;2.20;;;20.40;99.90;;;;;;5024997;28;20033;-53
2023/07/24 00:38:34;;;;;;;6.60;1.77;;;20.30;99.90;;;;;;5047386;28;20433;-52
2023/07/24 00:41:00;;;;;;;5.20;1.90;;;20.20;99.90;;;;;;5041777;28;20029;-52
2023/07/24 00:43:26;;;;;;;7.68;3.30;;;20.20;99.90;;;;;;5030280;28;20065;-50
2023/07/24 00:45:54;;;;;;;4.30;1.95;;;20.20;99.90;;;;;;5040544;28;20041;-53
2023/07/24 00:48:19;;;;;;;5.32;1.83;;;20.20;99.90;;;;;;5013521;28;20041;-52
2023/07/24 00:50:46;;;;;;;4.75;2.10;;;20.20;99.90;;;;;;5022761;28;20087;-53
2023/07/24 00:53:13;;;;;;;3.45;1.70;;;20.20;99.90;;;;;;5049204;28;20763;-52
2023/07/24 00:55:40;;;;;;;4.28;1.88;;;20.20;99.90;;;;;;5017579;28;20058;-49
2023/07/24 00:58:06;;;;;;;5.13;1.70;;;20.30;99.90;;;;;;5032118;28;20021;-55
2023/07/24 01:00:32;;;;;;;5.70;2.00;;;20.20;99.90;;;;;;5021897;28;20060;-51
2023/07/24 01:03:00;;;;;;;4.95;1.60;;;20.30;99.90;;;;;;5031285;28;20032;-52
2023/07/24 01:05:26;;;;;;;5.53;2.05;;;20.20;99.90;;;;;;5008393;28;20041;-53
2023/07/24 01:07:54;;;;;;;5.63;1.92;;;20.20;99.90;;;;;;5027007;28;20038;-54
2023/07/24 01:10:20;;;;;;;6.18;1.65;;;20.20;99.90;;;;;;5031945;28;20078;-52
2023/07/24 01:13:08;;;;;;;5.07;1.80;;;20.10;99.90;;;;;;5029503;28;20118;-54
2023/07/24 01:16:09;;;;;;;4.35;1.98;;;20.10;99.90;;;;;;5025170;28;20039;-54
2023/07/24 01:18:36;;;;;;;3.65;1.77;;;20.00;99.90;;;;;;5015741;28;20025;-53
2023/07/24 01:21:08;;;;;;;4.28;1.77;;;20.00;99.90;;;;;;5041138;28;20052;-54
2023/07/24 01:23:58;;;;;;;4.63;1.65;;;20.00;99.90;;;;;;5045250;28;20045;-54
2023/07/24 01:26:25;;;;;;;10.00;2.22;;;20.00;99.90;;;;;;5038313;28;20025;-52
2023/07/24 01:28:51;;;;;;;5.88;2.22;;;20.00;99.90;;;;;;5013379;28;20125;-49
2023/07/24 01:31:17;;;;;;;5.85;2.45;;;20.00;99.90;;;;;;5043148;28;20033;-52
2023/07/24 01:33:44;;;;;;;5.72;2.15;;;20.10;99.90;;;;;;5044954;28;20036;-50
2023/07/24 01:36:10;;;;;;;5.93;2.80;;;20.10;99.90;;;;;;5024200;28;20113;-50
2023/07/24 01:38:37;;;;;;;5.00;2.42;;;20.10;99.90;;;;;;5028610;28;20105;-49
2023/07/24 01:41:04;;;;;;;5.72;2.33;;;20.00;99.90;;;;;;5023342;28;20091;-55
2023/07/24 01:43:31;;;;;;;3.70;1.65;;;20.10;99.90;;;;;;5028472;28;20022;-51
2023/07/24 01:45:58;;;;;;;6.35;2.47;;;20.10;99.90;;;;;;5040228;28;20086;-49
2023/07/24 01:48:24;;;;;;;3.63;1.85;;;20.10;99.90;;;;;;5047243;28;20107;-50
2023/07/24 01:50:50;;;;;;;5.18;2.30;;;20.00;99.90;;;;;;5039340;28;20128;-54
2023/07/24 01:53:17;;;;;;;5.45;2.60;;;20.00;99.90;;;;;;5030115;28;20136;-49
2023/07/24 01:55:42;;;;;;;5.43;2.00;;;19.90;99.90;;;;;;5039357;28;20104;-51
2023/07/24 01:58:08;;;;;;;21.63;2.97;;;19.80;99.90;;;;;;5048413;28;20029;-53
2023/07/24 02:00:34;;;;;;;3.22;1.58;;;19.80;99.90;;;;;;5038679;28;20034;-49
2023/07/24 02:02:59;;;;;;;5.50;2.17;;;19.90;99.90;;;;;;5047942;28;20036;-55
2023/07/24 02:05:26;;;;;;;5.28;2.42;;;19.80;99.90;;;;;;5038604;28;20026;-53
2023/07/24 02:07:51;;;;;;;4.38;2.38;;;19.70;99.90;;;;;;5017002;28;20029;-49
2023/07/24 02:10:17;;;;;;;4.78;2.03;;;19.70;99.90;;;;;;5030876;28;20040;-55
2023/07/24 02:12:43;;;;;;;6.00;2.65;;;19.60;99.90;;;;;;5032346;28;20517;-51
2023/07/24 02:15:09;;;;;;;5.43;2.15;;;19.50;99.90;;;;;;5034134;28;20064;-52
2023/07/24 02:17:35;;;;;;;4.63;1.85;;;19.50;99.90;;;;;;5036164;28;20493;-53
2023/07/24 02:20:01;;;;;;;6.22;2.28;;;19.50;99.90;;;;;;5020779;28;20061;-47
2023/07/24 02:22:27;;;;;;;7.53;2.35;;;19.50;99.90;;;;;;5029792;28;20029;-52
2023/07/24 02:24:52;;;;;;;6.20;2.80;;;19.50;99.90;;;;;;5028154;28;20041;-50
2023/07/24 02:27:33;;;;;;;5.95;2.45;;;19.50;99.90;;;;;;5034224;28;20075;-51
2023/07/24 02:30:00;;;;;;;6.30;2.50;;;19.50;99.90;;;;;;5041561;28;20051;-54
2023/07/24 02:32:26;;;;;;;4.57;2.53;;;19.60;99.90;;;;;;5043092;28;20069;-51
2023/07/24 02:34:52;;;;;;;10.65;2.80;;;19.80;99.90;;;;;;5025785;28;20464;-50
2023/07/24 02:37:19;;;;;;;5.03;1.88;;;19.80;99.90;;;;;;5034305;28;20550;-52
2023/07/24 02:39:46;;;;;;;12.75;2.40;;;19.80;99.90;;;;;;5042506;28;20025;-53
2023/07/24 02:42:12;;;;;;;7.72;2.42;;;19.80;99.90;;;;;;5042062;28;20033;-51
2023/07/24 02:44:38;;;;;;;4.20;2.10;;;19.80;99.90;;;;;;5042764;28;20040;-51
2023/07/24 02:47:04;;;;;;;8.25;2.85;;;19.80;99.90;;;;;;5041842;28;20116;-53
2023/07/24 02:49:30;;;;;;;5.15;2.28;;;19.80;99.90;;;;;;5042806;28;20087;-52
2023/07/24 02:51:55;;;;;;;7.40;2.70;;;19.90;99.90;;;;;;5024251;28;20504;-50
2023/07/24 02:54:21;;;;;;;7.03;2.55;;;20.00;99.90;;;;;;5042395;28;20056;-52
2023/07/24 02:56:47;;;;;;;8.85;2.45;;;19.90;99.90;;;;;;5041900;28;20112;-54
2023/07/24 02:59:12;;;;;;;8.07;2.33;;;19.80;99.90;;;;;;5042291;28;20509;-52
2023/07/24 03:01:38;;;;;;;6.30;2.47;;;19.90;99.90;;;;;;5041837;28;20029;-50
2023/07/24 03:04:05;;;;;;;8.57;2.35;;;19.80;99.90;;;;;;5042589;28;20033;-50
2023/07/24 03:06:32;;;;;;;6.60;2.35;;;19.80;99.90;;;;;;5041757;28;20049;-52
2023/07/24 03:08:57;;;;;;;3.80;1.88;;;19.80;99.90;;;;;;5042341;28;20033;-55
2023/07/24 03:11:23;;;;;;;5.53;2.22;;;19.80;99.90;;;;;;5041851;28;20036;-53
2023/07/24 03:13:49;;;;;;;5.15;2.63;;;19.80;99.90;;;;;;5042608;28;20067;-53
2023/07/24 03:16:16;;;;;;;5.93;2.45;;;19.90;99.90;;;;;;5040551;28;20026;-53
2023/07/24 03:18:43;;;;;;;7.97;2.20;;;19.90;99.90;;;;;;5029115;28;20032;-53
2023/07/24 03:21:09;;;;;;;6.93;2.63;;;19.80;99.90;;;;;;5040476;28;20401;-55
2023/07/24 03:23:35;;;;;;;5.35;2.15;;;19.70;99.90;;;;;;5044158;28;20037;-48
2023/07/24 03:26:00;;;;;;;4.60;1.95;;;19.70;99.90;;;;;;5039374;28;20489;-52
2023/07/24 03:28:26;;;;;;;4.70;2.05;;;19.80;99.90;;;;;;5045972;28;20508;-51
2023/07/24 03:30:52;;;;;;;6.78;2.30;;;19.80;99.90;;;;;;5042018;28;20060;-53
2023/07/24 03:33:20;;;;;;;4.32;2.15;;;19.90;99.90;;;;;;5050146;28;20073;-52
2023/07/24 03:35:45;;;;;;;4.70;2.20;;;19.90;99.90;;;;;;5041925;28;20033;-53
2023/07/24 03:38:11;;;;;;;5.70;2.22;;;19.90;99.90;;;;;;5050654;28;20021;-50
2023/07/24 03:40:37;;;;;;;5.72;2.55;;;19.90;99.90;;;;;;5036329;28;20477;-52
2023/07/24 03:43:03;;;;;;;7.50;2.60;;;19.90;99.90;;;;;;5051144;28;20524;-53
2023/07/24 03:45:28;;;;;;;4.05;2.08;;;20.00;99.90;;;;;;5040721;28;20076;-51
2023/07/24 03:47:54;;;;;;;5.97;2.53;;;20.10;99.90;;;;;;5049971;28;20086;-52
2023/07/24 03:50:20;;;;;;;7.13;2.92;;;20.10;99.90;;;;;;5041788;28;20432;-54
2023/07/24 03:52:46;;;;;;;7.53;3.00;;;20.20;99.90;;;;;;5048996;28;20033;-51
2023/07/24 03:55:12;;;;;;;6.13;2.20;;;20.30;99.90;;;;;;5042845;28;20036;-52
2023/07/24 03:57:37;;;;;;;7.35;2.63;;;20.30;99.90;;;;;;5029881;28;20057;-54
2023/07/24 04:00:04;;;;;;;6.40;2.30;;;20.30;99.90;;;;;;5043804;28;20456;-54
2023/07/24 04:02:30;;;;;;;7.45;2.50;;;20.10;99.90;;;;;;5046237;28;20033;-55
2023/07/24 04:04:55;;;;;;;7.80;3.03;;;20.10;99.90;;;;;;5042004;28;20029;-53
2023/07/24 04:07:21;;;;;;;5.82;2.65;;;20.10;99.90;;;;;;5027560;28;20036;-52
2023/07/24 04:09:47;;;;;;;7.15;2.58;;;20.00;99.90;;;;;;5045168;28;20074;-53
2023/07/24 04:12:12;;;;;;;6.20;2.40;;;20.00;99.90;;;;;;5044458;28;20044;-55
2023/07/24 04:14:38;;;;;;;5.05;2.15;;;20.00;99.90;;;;;;5041012;28;20485;-53
2023/07/24 04:17:04;;;;;;;8.57;2.45;;;20.10;99.90;;;;;;5041105;28;20033;-51
2023/07/24 04:19:30;;;;;;;7.60;2.95;;;20.10;99.90;;;;;;5036991;28;20021;-52
2023/07/24 04:21:56;;;;;;;5.60;2.80;;;20.10;99.90;;;;;;5044311;28;20029;-50
2023/07/24 04:24:21;;;;;;;6.35;2.42;;;20.00;99.90;;;;;;5044818;28;20029;-54
2023/07/24 04:26:47;;;;;;;3.83;2.13;;;20.00;99.90;;;;;;5044005;28;20231;-54
2023/07/24 04:29:13;;;;;;;5.47;2.30;;;19.90;99.90;;;;;;5044940;28;20036;-50
2023/07/24 04:31:38;;;;;;;6.00;2.08;;;20.00;99.90;;;;;;5044163;28;20035;-51
2023/07/24 04:34:04;;;;;;;5.57;2.70;;;20.00;99.90;;;;;;5044610;28;20500;-50
2023/07/24 04:36:30;;;;;;;6.72;2.45;;;20.00;99.90;;;;;;5037728;28;20032;-52
2023/07/24 04:38:56;;;;;;;9.70;4.55;;;20.00;99.90;;;;;;5026994;28;20579;-53
2023/07/24 04:41:21;;;;;;;6.75;2.78;;;20.10;99.90;;;;;;5024436;28;20064;-53
2023/07/24 04:43:47;;;;;;;5.45;2.50;;;20.10;99.90;;;;;;4995478;28;20041;-51
2023/07/24 04:46:13;;;;;;;5.97;2.53;;;20.20;99.90;;;;;;5027468;28;20112;-49
2023/07/24 04:48:38;;;;;;;6.20;2.22;;;20.30;99.90;;;;;;5029316;28;20034;-53
2023/07/24 04:51:04;;;;;;;4.88;1.98;;;20.30;99.90;;;;;;5041833;28;20029;-54
2023/07/24 04:53:30;;;;;;;5.72;1.80;;;20.40;99.90;;;;;;4981644;28;20041;-52
2023/07/24 04:55:56;;;;;;;5.72;2.70;;;20.40;99.90;;;;;;5034041;28;20037;-51
2023/07/24 04:58:21;;;;;;;7.28;2.80;;;20.50;99.90;;;;;;5028501;28;20030;-54
2023/07/24 05:00:47;;;;;;;5.80;2.20;;;20.60;99.90;;;;;;5040071;28;20040;-48
2023/07/24 05:03:13;;;;;;;7.25;2.10;;;20.60;99.90;;;;;;5031318;28;20061;-53
2023/07/24 05:05:39;;;;;;;4.60;2.35;;;20.60;99.90;;;;;;5039947;28;20025;-55
2023/07/24 05:08:05;;;;;;;7.07;2.60;;;20.60;99.90;;;;;;5049870;28;20068;-55
2023/07/24 05:10:37;;;;;;;7.72;2.80;;;20.70;99.90;;;;;;5035140;28;20026;-54
2023/07/24 05:13:03;;;;;;;6.35;2.30;;;20.80;99.90;;;;;;5031665;28;20032;-51
2023/07/24 05:15:29;;;;;;;5.40;2.88;;;20.80;99.90;;;;;;4987522;28;20062;-53
2023/07/24 05:17:55;;;;;;;5.28;1.95;;;20.80;99.90;;;;;;5018966;28;20050;-49
2023/07/24 05:20:21;;;;;;;6.55;2.50;;;20.90;99.90;;;;;;5037229;28;20060;-50
2023/07/24 05:22:46;;;;;;;7.32;2.55;;;20.80;99.90;;;;;;5046827;28;20040;-54
2023/07/24 05:25:12;;;;;;;5.65;2.08;;;20.90;99.90;;;;;;5040704;28;20080;-47
2023/07/24 05:27:38;;;;;;;7.13;2.63;;;20.90;99.90;;;;;;5045885;28;20033;-53
2023/07/24 05:30:06;;;;;;;15.93;2.65;;;20.90;99.90;;;;;;5041999;28;20032;-55
2023/07/24 05:32:31;;;;;;;6.25;2.58;;;21.00;99.90;;;;;;5026752;28;20033;-55
2023/07/24 05:34:57;;;;;;;5.97;2.80;;;21.00;99.90;;;;;;5025539;28;20126;-71
2023/07/24 05:37:23;;;;;;;5.57;2.47;;;21.10;99.90;;;;;;5043498;28;20470;-76
2023/07/24 05:39:48;;;;;;;5.30;2.45;;;21.10;99.90;;;;;;5026210;28;20039;-72
2023/07/24 05:42:14;;;;;;;9.35;2.97;;;21.20;99.90;;;;;;5042553;28;20162;-71
2023/07/24 05:44:40;;;;;;;7.35;2.95;;;21.00;99.90;;;;;;5003362;28;20041;-71
2023/07/24 05:47:06;;;;;;;6.10;2.47;;;20.90;99.90;;;;;;5025079;28;20036;-72
2023/07/24 05:49:31;;;;;;;7.00;2.33;;;21.00;99.90;;;;;;5043163;28;20428;-71
2023/07/24 05:51:57;;;;;;;9.02;3.35;;;21.00;99.90;;;;;;5041731;28;20499;-72
2023/07/24 05:54:23;;;;;;;4.97;2.58;;;21.10;99.90;;;;;;5025720;28;20036;-72
2023/07/24 05:56:49;;;;;;;7.03;2.85;;;21.00;99.90;;;;;;5042540;28;20431;-73
2023/07/24 05:59:15;;;;;;;7.10;3.05;;;21.10;99.90;;;;;;5026223;28;20025;-72
2023/07/24 06:01:40;;;;;;;6.22;3.13;;;21.10;99.90;;;;;;5035455;28;20072;-72
2023/07/24 06:04:07;;;;;;;6.55;2.55;;;21.10;99.90;;;;;;5031947;28;20465;-72
2023/07/24 06:06:33;;;;;;;7.60;2.92;;;21.20;99.90;;;;;;5024601;28;20103;-73
2023/07/24 06:08:59;;;;;;;9.88;3.42;;;21.20;99.90;;;;;;5026319;28;20045;-58
2023/07/24 06:11:26;;;;;;;6.40;2.65;;;21.20;99.90;;;;;;5042273;28;20021;-58
2023/07/24 06:13:52;;;;;;;11.00;2.72;;;21.30;99.90;;;;;;5042999;28;20044;-58
2023/07/24 06:16:18;;;;;;;3.60;1.98;;;21.30;99.90;;;;;;5039454;28;20021;-59
2023/07/24 06:18:44;;;;;;;6.78;2.83;;;21.40;99.90;;;;;;5024071;28;20470;-56
2023/07/24 06:21:10;;;;;;;10.20;2.40;;;21.20;99.90;;;;;;5038088;28;20481;-57
2023/07/24 06:23:36;;;;;;;8.05;2.97;;;21.20;99.90;;;;;;5012037;28;20112;-57
2023/07/24 06:26:02;;;;;;;7.30;2.72;;;21.30;99.90;;;;;;5040071;28;20112;-57
2023/07/24 06:28:28;;;;;;;9.95;3.10;;;21.40;99.90;;;;;;5045983;28;20516;-59
2023/07/24 06:30:55;;;;;;;6.78;2.80;;;21.50;99.90;;;;;;5038834;28;20037;-58
2023/07/24 06:33:23;;;;;;;8.10;3.17;;;21.60;99.90;;;;;;5046727;28;20068;-55
2023/07/24 06:35:50;;;;;;;8.20;2.83;;;21.70;99.90;;;;;;5029349;28;20041;-58
2023/07/24 06:38:17;;;;;;;7.22;2.92;;;21.70;99.90;;;;;;5020619;28;20052;-58
2023/07/24 06:40:42;;;;;;;7.95;2.72;;;21.70;99.90;;;;;;5021769;28;20740;-57
2023/07/24 06:43:08;;;;;;;6.50;2.45;;;21.80;99.90;;;;;;5039277;28;20048;-56
2023/07/24 06:45:34;;;;;;;6.95;2.67;;;21.70;99.90;;;;;;5038548;28;20030;-57
2023/07/24 06:47:59;;;;;;;7.47;2.67;;;21.70;99.90;;;;;;5047578;28;20067;-59
2023/07/24 06:50:25;;;;;;;7.20;2.30;;;21.60;99.90;;;;;;5031375;28;20045;-59
2023/07/24 06:52:53;;;;;;;9.15;3.55;;;21.60;99.90;;;;;;5034666;28;20112;-57
2023/07/24 06:55:19;;;;;;;10.60;2.90;;;21.60;99.90;;;;;;5031942;28;20025;-59
2023/07/24 06:57:45;;;;;;;7.53;2.75;;;21.70;99.90;;;;;;5016099;28;20036;-58
2023/07/24 07:00:12;;;;;;;6.45;3.40;;;21.90;99.90;;;;;;5024762;28;20536;-57
2023/07/24 07:02:38;;;;;;;6.03;2.85;;;21.80;99.90;;;;;;5034406;28;20033;-58
2023/07/24 07:05:05;;;;;;;7.20;2.55;;;21.80;99.90;;;;;;5041352;28;20037;-59
2023/07/24 07:07:31;;;;;;;7.10;3.03;;;21.80;99.90;;;;;;5039053;28;20026;-59
2023/07/24 07:09:57;;;;;;;12.50;3.00;;;21.80;99.90;;;;;;5000580;28;20497;-60
2023/07/24 07:12:23;;;;;;;12.32;3.28;;;21.90;99.90;;;;;;5047774;28;20041;-60
2023/07/24 07:14:48;;;;;;;8.43;2.65;;;21.90;99.90;;;;;;5036922;28;20025;-59
2023/07/24 07:17:14;;;;;;;6.88;2.85;;;21.90;99.90;;;;;;5052447;28;20021;-59
2023/07/24 07:19:40;;;;;;;9.02;2.70;;;22.10;99.90;;;;;;5037108;28;20026;-59
2023/07/24 07:22:06;;;;;;;7.38;3.42;;;22.20;99.90;;;;;;4995609;28;20033;-59
2023/07/24 07:24:32;;;;;;;8.57;3.20;;;22.30;99.90;;;;;;5044458;28;20044;-59
2023/07/24 07:26:57;;;;;;;6.88;3.00;;;22.50;99.90;;;;;;5045541;28;20084;-59
2023/07/24 07:29:23;;;;;;;10.27;2.83;;;22.50;99.90;;;;;;5028542;28;20581;-57
2023/07/24 07:31:49;;;;;;;6.55;2.65;;;22.30;99.90;;;;;;5034811;28;20057;-59
2023/07/24 07:34:15;;;;;;;4.80;2.38;;;22.40;99.90;;;;;;5035434;28;20115;-58
2023/07/24 07:36:40;;;;;;;9.35;3.42;;;22.50;99.90;;;;;;5043098;28;20029;-58
2023/07/24 07:39:06;;;;;;;5.53;2.67;;;22.50;99.90;;;;;;5034430;28;20083;-59
2023/07/24 07:41:32;;;;;;;5.63;2.63;;;22.70;99.90;;;;;;5044793;28;20032;-59
2023/07/24 07:43:57;;;;;;;4.63;1.98;;;22.80;99.90;;;;;;5045632;28;20033;-58
2023/07/24 07:46:23;;;;;;;6.05;2.65;;;23.00;99.90;;;;;;5045212;28;20017;-58
2023/07/24 07:48:49;;;;;;;8.07;3.20;;;22.80;99.90;;;;;;5046068;28;20481;-59
2023/07/24 07:51:15;;;;;;;5.13;2.58;;;22.80;99.90;;;;;;5044290;28;20048;-58
2023/07/24 07:53:41;;;;;;;5.10;2.45;;;23.00;99.90;;;;;;5046894;28;20041;-59
2023/07/24 07:56:07;;;;;;;6.25;2.60;;;23.00;99.90;;;;;;5043018;28;20038;-58
2023/07/24 07:58:33;;;;;;;5.45;2.00;;;23.00;99.90;;;;;;5048118;28;20057;-60
2023/07/24 08:01:05;;;;;;;9.40;3.45;;;23.10;99.90;;;;;;5042294;28;20286;-58
2023/07/24 08:03:30;;;;;;;6.38;2.47;;;23.10;99.90;;;;;;5048219;28;20053;-58
2023/07/24 08:05:59;;;;;;;6.10;2.50;;;23.00;99.90;;;;;;5041622;28;20470;-59
2023/07/24 08:08:27;;;;;;;4.05;1.95;;;23.10;99.90;;;;;;5048734;28;20033;-58
2023/07/24 08:10:53;;;;;;;7.22;2.90;;;22.80;99.90;;;;;;5021984;28;20033;-58
2023/07/24 08:13:19;;;;;;;8.90;2.88;;;22.90;99.90;;;;;;5029502;28;20036;-56
2023/07/24 08:15:44;;;;;;;5.50;2.63;;;22.80;99.90;;;;;;5011071;28;20477;-58
2023/07/24 08:18:10;;;;;;;4.78;2.20;;;22.90;99.90;;;;;;5039082;28;20036;-58
2023/07/24 08:20:37;;;;;;;8.02;2.63;;;22.90;99.90;;;;;;5032427;28;20140;-58
2023/07/24 08:23:03;;;;;;;5.80;2.92;;;23.10;99.90;;;;;;4993811;28;20461;-58
2023/07/24 08:25:29;;;;;;;5.82;2.42;;;23.10;99.90;;;;;;5026490;28;20033;-56
2023/07/24 08:27:54;;;;;;;6.03;2.38;;;23.00;99.90;;;;;;5015526;28;20041;-54
2023/07/24 08:30:20;;;;;;;6.63;3.10;;;23.10;99.90;;;;;;5015854;28;20041;-58
2023/07/24 08:32:46;;;;;;;10.02;2.25;;;23.30;99.90;;;;;;5013455;28;20029;-56
2023/07/24 08:35:12;;;;;;;11.63;3.30;;;23.30;99.90;;;;;;5041587;28;20048;-57
2023/07/24 08:37:38;;;;;;;9.88;3.72;;;23.40;99.90;;;;;;5014601;28;20049;-57
2023/07/24 08:40:05;;;;;;;7.85;2.85;;;23.50;99.90;;;;;;5025736;28;20030;-58
2023/07/24 08:42:32;;;;;;;7.85;3.22;;;23.70;99.90;;;;;;5034029;28;20032;-59
2023/07/24 08:44:58;;;;;;;5.10;2.30;;;23.90;99.90;;;;;;5013025;28;20409;-58
2023/07/24 08:47:24;;;;;;;7.10;2.70;;;24.00;99.90;;;;;;5018290;28;20028;-58
2023/07/24 08:49:52;;;;;;;6.50;2.70;;;24.00;99.90;;;;;;5032667;28;20509;-59
2023/07/24 08:52:17;;;;;;;22.27;3.03;;;24.00;99.90;;;;;;5025912;28;20072;-58
2023/07/24 08:54:44;;;;;;;7.00;2.83;;;24.10;99.90;;;;;;5044334;28;20484;-56
2023/07/24 08:57:11;;;;;;;8.82;2.30;;;24.00;99.90;;;;;;5018888;28;20115;-58
2023/07/24 08:59:36;;;;;;;5.78;2.40;;;24.00;99.90;;;;;;5014653;28;20025;-59
2023/07/24 09:02:02;;;;;;;8.23;3.38;;;23.80;99.90;;;;;;5041392;28;20515;-59
2023/07/24 09:04:29;;;;;;;12.15;2.65;;;23.80;99.90;;;;;;5043728;28;20036;-57
2023/07/24 09:06:58;;;;;;;5.93;2.85;;;23.70;99.90;;;;;;5025712;28;20036;-58
2023/07/24 09:09:29;;;;;;;6.60;2.50;;;23.70;99.90;;;;;;5019891;28;20103;-59
2023/07/24 09:11:54;;;;;;;4.90;2.33;;;23.50;99.90;;;;;;5026120;28;20079;-56
2023/07/24 09:14:27;;;;;;;7.05;2.67;;;23.60;99.90;;;;;;5026796;28;20029;-55
2023/07/24 09:17:11;;;;;;;8.43;2.88;;;23.70;99.90;;;;;;5043169;28;20067;-58
2023/07/24 09:19:38;;;;;;;8.57;3.13;;;23.70;99.90;;;;;;5042944;28;20477;-56
2023/07/24 09:22:15;;;;;;;5.68;2.30;;;23.70;99.90;;;;;;5020483;28;20033;-58
2023/07/24 09:24:57;;;;;;;6.45;2.67;;;23.80;99.90;;;;;;5038991;28;20029;-57
2023/07/24 09:27:28;;;;;;;7.63;2.97;;;23.80;99.90;;;;;;5035759;28;20028;-58
2023/07/24 09:29:55;;;;;;;6.50;3.17;;;23.80;99.90;;;;;;5024685;28;20029;-73
2023/07/24 09:32:26;;;;;;;5.55;2.88;;;23.90;99.90;;;;;;5020879;28;20038;-72
2023/07/24 09:34:56;;;;;;;5.47;2.97;;;23.80;99.90;;;;;;5030021;28;20033;-73
2023/07/24 09:37:33;;;;;;;7.18;2.65;;;23.70;99.90;;;;;;5038875;28;20037;-72
2023/07/24 09:39:58;;;;;;;5.55;2.70;;;23.60;99.90;;;;;;5038138;28;20029;-73
2023/07/24 09:42:35;;;;;;;8.45;2.75;;;23.50;99.90;;;;;;5043529;28;20047;-72
2023/07/24 09:45:03;;;;;;;6.07;2.50;;;23.30;99.90;;;;;;4996169;28;20555;-73
2023/07/24 09:47:29;;;;;;;6.63;2.92;;;23.30;99.90;;;;;;5012720;28;20045;-72
2023/07/24 09:49:55;;;;;;;4.97;2.70;;;23.30;99.90;;;;;;4993814;28;20044;-77
2023/07/24 09:52:24;;;;;;;8.02;2.90;;;23.10;99.90;;;;;;5011850;28;20107;-77
2023/07/24 09:54:59;;;;;;;7.30;2.70;;;23.20;99.90;;;;;;5020401;28;20087;-69
2023/07/24 09:57:26;;;;;;;6.57;2.67;;;23.20;99.90;;;;;;5013282;28;20025;-69
2023/07/24 09:59:54;;;;;;;6.78;3.03;;;23.20;99.90;;;;;;5030058;28;20057;-70
2023/07/24 10:02:21;;;;;;;5.75;2.30;;;23.20;99.90;;;;;;5022065;28;20029;-69
2023/07/24 10:04:47;;;;;;;7.95;3.00;;;23.20;99.90;;;;;;5004859;28;20083;-71
2023/07/24 10:07:14;;;;;;;4.25;2.55;;;23.30;99.90;;;;;;5030520;28;20039;-70
2023/07/24 10:09:42;;;;;;;6.43;2.85;;;23.30;99.90;;;;;;5047415;23;20045;-71
2023/07/24 10:12:09;;;;;;;6.25;2.97;;;23.30;99.90;;;;;;5058841;28;20074;-72
2023/07/24 10:14:37;;;;;;;6.43;2.30;;;23.30;99.90;;;;;;5058953;28;20066;-72
2023/07/24 10:17:03;;;;;;;9.52;2.70;;;23.30;99.90;;;;;;5053055;28;20033;-70
2023/07/24 10:19:44;;;;;;;6.55;2.83;;;23.30;99.90;;;;;;5041841;28;20098;-70
2023/07/24 10:22:18;;;;;;;;;;;23.30;99.90;;;;;;5031772;28;20029;-68
2023/07/24 10:24:45;;;;;;;14.65;3.17;;;23.20;99.90;;;;;;5044175;28;19955;-69
2023/07/24 10:27:12;;;;;;;8.38;2.60;;;23.20;99.90;;;;;;5040502;28;20082;-72
2023/07/24 10:29:38;;;;;;;5.82;2.40;;;23.20;99.90;;;;;;5044029;28;20029;-70
2023/07/24 10:32:17;;;;;;;6.22;3.05;;;23.30;99.90;;;;;;5040661;28;20059;-71
2023/07/24 10:34:43;;;;;;;5.55;2.63;;;23.30;99.90;;;;;;5045143;28;20078;-69
2023/07/24 10:37:12;;;;;;;6.45;3.35;;;23.40;99.90;;;;;;5057574;28;20032;-68
2023/07/24 10:39:41;;;;;;;7.50;2.67;;;23.60;99.90;;;;;;5045269;28;20037;-69
2023/07/24 10:42:11;;;;;;;7.15;2.38;;;23.60;99.90;;;;;;5041850;28;20037;-70
2023/07/24 10:44:37;;;;;;;6.93;2.78;;;23.70;99.90;;;;;;5043841;28;20515;-68
2023/07/24 10:47:03;;;;;;;4.75;2.53;;;23.60;99.90;;;;;;5040621;28;20594;-70
2023/07/24 10:49:29;;;;;;;6.82;2.80;;;23.70;99.90;;;;;;5039725;28;20477;-68
2023/07/24 10:51:59;;;;;;;5.50;2.42;;;23.80;99.90;;;;;;5034519;28;20045;-69
2023/07/24 10:54:25;;;;;;;5.15;2.55;;;23.90;99.90;;;;;;5037807;28;20032;-71
2023/07/24 10:57:00;;;;;;;6.18;2.63;;;23.90;99.90;;;;;;5041690;28;20064;-71
2023/07/24 10:59:39;;;;;;;4.57;2.45;;;23.90;99.90;;;;;;5045173;28;20496;-72
2023/07/24 11:02:05;;;;;;;5.65;2.20;;;24.00;99.90;;;;;;5018057;28;20038;-72
2023/07/24 11:04:32;;;;;;;7.10;2.83;;;24.10;99.90;;;;;;5022092;28;20038;-72
2023/07/24 11:06:58;;;;;;;5.47;2.40;;;24.00;99.90;;;;;;5031550;28;20038;-71
2023/07/24 11:09:36;;;;;;;5.40;2.40;;;23.90;99.90;;;;;;5032340;28;20044;-70
2023/07/24 11:12:18;;;;;;;7.20;2.58;;;24.00;99.90;;;;;;5025785;28;20481;-70
2023/07/24 11:14:55;;;;;;;9.93;2.78;;;24.10;99.90;;;;;;5031246;28;20045;-70
2023/07/24 11:17:20;;;;;;;8.02;2.50;;;23.90;99.90;;;;;;5024620;28;20737;-69
2023/07/24 11:19:46;;;;;;;6.35;2.35;;;23.90;99.90;;;;;;5021329;28;20033;-69
2023/07/24 11:22:12;;;;;;;8.18;2.15;;;24.00;99.90;;;;;;5027043;28;20037;-69
2023/07/24 11:24:47;;;;;;;8.68;2.30;;;24.30;99.90;;;;;;5014509;28;20025;-69
2023/07/24 11:27:15;;;;;;;9.20;2.95;;;24.20;99.90;;;;;;5032527;28;20044;-69
2023/07/24 11:29:42;;;;;;;4.43;2.03;;;24.30;99.90;;;;;;5044738;28;20029;-69
2023/07/24 11:32:08;;;;;;;10.32;2.55;;;24.30;99.90;;;;;;5041057;28;20025;-69
2023/07/24 11:34:34;;;;;;;4.00;1.90;;;24.40;99.90;;;;;;5036062;28;20037;-68
2023/07/24 11:37:00;;;;;;;4.22;2.20;;;24.30;99.90;;;;;;5026006;28;20124;-69
2023/07/24 11:39:26;;;;;;;6.22;2.33;;;24.40;99.90;;;;;;5029944;28;20481;-69
2023/07/24 11:41:52;;;;;;;5.18;2.40;;;24.50;99.90;;;;;;5037845;28;20037;-69
2023/07/24 11:44:28;;;;;;;6.43;2.83;;;24.40;99.90;;;;;;5044376;28;20040;-71
2023/07/24 11:47:11;;;;;;;6.15;2.40;;;24.30;99.90;;;;;;5030179;28;20397;-69
2023/07/24 11:49:37;;;;;;;7.00;2.53;;;24.20;99.90;;;;;;5022921;28;20032;-71
2023/07/24 11:52:05;;;;;;;3.38;1.90;;;24.10;99.90;;;;;;5041038;28;20045;-70
2023/07/24 11:54:34;;;;;;;8.55;2.60;;;24.10;99.90;;;;;;5033481;28;20515;-69
2023/07/24 11:57:00;;;;;;;8.30;3.20;;;24.20;99.90;;;;;;5043578;28;20033;-70
2023/07/24 11:59:26;;;;;;;5.28;2.47;;;24.30;99.90;;;;;;5019134;28;20379;-70
2023/07/24 12:01:52;;;;;;;5.82;2.67;;;24.50;99.90;;;;;;5039905;28;20041;-69
2023/07/24 12:04:18;;;;;;;6.00;2.70;;;24.50;99.90;;;;;;5034402;28;20492;-69
2023/07/24 12:06:44;;;;;;;5.82;2.40;;;24.50;99.90;;;;;;5043513;28;20094;-70
2023/07/24 12:09:11;;;;;;;7.68;2.08;;;24.70;99.90;;;;;;5047757;28;20021;-70
2023/07/24 12:11:44;;;;;;;7.25;2.78;;;24.30;99.90;;;;;;5044572;28;20024;-70
2023/07/24 12:14:10;;;;;;;7.20;2.55;;;24.30;99.90;;;;;;5047823;28;20039;-69
2023/07/24 12:16:36;;;;;;;5.35;2.33;;;24.10;99.90;;;;;;5031455;28;20025;-70
2023/07/24 12:19:02;;;;;;;5.55;2.28;;;24.20;99.90;;;;;;5031750;28;20026;-69
2023/07/24 12:21:28;;;;;;;7.18;2.40;;;24.00;99.90;;;;;;5032382;28;20030;-70
2023/07/24 12:23:54;;;;;;;5.53;2.65;;;23.80;99.90;;;;;;5031662;28;20033;-70
2023/07/24 12:26:20;;;;;;;9.05;2.67;;;23.90;99.90;;;;;;5036094;28;20092;-70
2023/07/24 12:28:45;;;;;;;7.70;2.28;;;24.00;99.90;;;;;;5039910;28;20033;-70
2023/07/24 12:31:11;;;;;;;7.15;2.65;;;24.00;99.90;;;;;;5021347;28;20033;-70
2023/07/24 12:33:37;;;;;;;8.43;2.80;;;24.10;99.90;;;;;;5039131;28;20417;-70
2023/07/24 12:36:03;;;;;;;5.53;2.33;;;24.30;99.90;;;;;;5037910;28;20041;-69
2023/07/24 12:38:30;;;;;;;7.05;2.95;;;24.30;99.90;;;;;;5032010;28;20057;-69
2023/07/24 12:40:55;;;;;;;4.97;2.38;;;24.40;99.90;;;;;;5039478;28;20039;-69
2023/07/24 12:43:21;;;;;;;6.57;2.50;;;24.60;99.90;;;;;;5031009;28;20381;-69
2023/07/24 12:45:47;;;;;;;4.32;2.13;;;24.50;99.90;;;;;;5037462;28;20030;-70